createdAt,value
2023-05-23T00:02:15.908Z,7.04
2023-05-23T00:04:43.178Z,7.00
2023-05-23T00:07:10.364Z,6.96
2023-05-23T00:09:37.568Z,6.92
2023-05-23T00:12:04.543Z,6.89
2023-05-23T00:14:34.050Z,6.87
2023-05-23T00:17:01.648Z,6.84
2023-05-23T00:19:28.909Z,6.80
2023-05-23T00:21:58.853Z,6.76
2023-05-23T00:24:26.104Z,6.71
2023-05-23T00:26:52.933Z,6.69
2023-05-23T00:29:20.638Z,6.67
2023-05-23T00:31:47.603Z,6.65
2023-05-23T00:34:15.912Z,6.61
2023-05-23T00:36:43.712Z,6.56
2023-05-23T00:39:19.326Z,6.53
2023-05-23T00:41:52.369Z,6.51
2023-05-23T00:44:20.737Z,6.47
2023-05-23T00:46:50.109Z,6.43
2023-05-23T00:49:20.336Z,6.40
2023-05-23T00:51:47.375Z,6.36
2023-05-23T00:54:15.150Z,6.33
2023-05-23T00:56:43.978Z,6.30
2023-05-23T00:59:12.709Z,6.28
2023-05-23T01:01:40.491Z,6.26
2023-05-23T01:04:07.764Z,6.24
2023-05-23T01:06:34.611Z,6.23
2023-05-23T01:09:03.012Z,6.21
2023-05-23T01:11:42.438Z,6.20
2023-05-23T01:14:16.461Z,6.20
2023-05-23T01:16:53.833Z,6.16
2023-05-23T01:19:33.142Z,6.13
2023-05-23T01:22:02.194Z,6.08
2023-05-23T01:24:36.596Z,6.07
2023-05-23T01:27:09.938Z,6.04
2023-05-23T01:29:42.511Z,6.01
2023-05-23T01:32:12.123Z,6.00
2023-05-23T01:34:40.059Z,6.00
2023-05-23T01:37:18.751Z,6.00
2023-05-23T01:39:46.268Z,5.95
2023-05-23T01:42:13.492Z,5.93
2023-05-23T01:44:41.033Z,5.90
2023-05-23T01:47:09.838Z,5.90
2023-05-23T01:49:37.269Z,5.84
2023-05-23T01:52:04.935Z,5.81
2023-05-23T01:54:32.666Z,5.77
2023-05-23T01:57:00.264Z,5.74
2023-05-23T01:59:27.331Z,5.72
2023-05-23T02:01:54.058Z,5.67
2023-05-23T02:04:21.852Z,5.65
2023-05-23T02:06:48.601Z,5.61
2023-05-23T02:09:16.635Z,5.60
2023-05-23T02:11:43.515Z,5.56
2023-05-23T02:14:11.328Z,5.55
2023-05-23T02:16:38.215Z,5.51
2023-05-23T02:19:05.346Z,5.51
2023-05-23T02:21:34.934Z,5.50
2023-05-23T02:24:02.401Z,5.47
2023-05-23T02:26:29.185Z,5.45
2023-05-23T02:28:56.189Z,5.45
2023-05-23T02:31:23.707Z,5.41
2023-05-23T02:33:50.806Z,5.38
2023-05-23T02:36:17.701Z,5.36
2023-05-23T02:38:44.904Z,5.33
2023-05-23T02:41:11.636Z,5.30
2023-05-23T02:43:39.363Z,5.31
2023-05-23T02:46:06.128Z,5.30
2023-05-23T02:48:33.245Z,5.30
2023-05-23T02:51:00.245Z,5.28
2023-05-23T02:53:27.680Z,5.27
2023-05-23T02:55:54.410Z,5.27
2023-05-23T02:58:21.459Z,5.28
2023-05-23T03:00:48.222Z,5.27
2023-05-23T03:03:17.050Z,5.29
2023-05-23T03:05:44.095Z,5.31
2023-05-23T03:08:11.194Z,5.33
2023-05-23T03:10:38.016Z,5.36
2023-05-23T03:13:05.235Z,5.38
2023-05-23T03:15:32.095Z,5.42
2023-05-23T03:17:59.331Z,5.49
2023-05-23T03:20:26.191Z,5.55
2023-05-23T03:22:53.242Z,5.63
2023-05-23T03:25:20.017Z,5.70
2023-05-23T03:27:47.068Z,5.78
2023-05-23T03:30:13.929Z,5.87
2023-05-23T03:32:41.263Z,5.95
2023-05-23T03:35:08.387Z,6.08
2023-05-23T03:37:35.404Z,6.20
2023-05-23T03:40:02.141Z,6.31
2023-05-23T03:42:29.399Z,6.39
2023-05-23T03:44:56.867Z,6.43
2023-05-23T03:47:26.532Z,6.52
2023-05-23T03:49:53.313Z,6.63
2023-05-23T03:52:20.398Z,6.76
2023-05-23T03:54:47.144Z,6.91
2023-05-23T03:57:14.171Z,7.05
2023-05-23T03:59:41.124Z,7.24
2023-05-23T04:02:08.530Z,7.43
2023-05-23T04:04:35.447Z,7.63
2023-05-23T04:07:02.746Z,7.82
2023-05-23T04:09:29.508Z,8.04
2023-05-23T04:11:56.774Z,8.20
2023-05-23T04:14:24.379Z,8.35
2023-05-23T04:16:51.452Z,8.52
2023-05-23T04:19:18.264Z,8.76
2023-05-23T04:21:45.437Z,9.00
2023-05-23T04:24:12.157Z,9.24
2023-05-23T04:26:39.684Z,9.51
2023-05-23T04:29:06.644Z,9.81
2023-05-23T04:31:34.431Z,10.08
2023-05-23T04:34:02.587Z,10.35
2023-05-23T04:36:30.371Z,10.63
2023-05-23T04:38:57.337Z,10.94
2023-05-23T04:41:24.521Z,11.26
2023-05-23T04:43:54.727Z,11.59
2023-05-23T04:46:27.724Z,11.96
2023-05-23T04:48:55.414Z,12.41
2023-05-23T04:51:22.539Z,12.84
2023-05-23T04:53:49.805Z,13.33
2023-05-23T04:56:28.377Z,13.71
2023-05-23T04:58:55.205Z,14.00
2023-05-23T05:01:24.672Z,14.24
2023-05-23T05:03:52.245Z,14.52
2023-05-23T05:06:19.576Z,14.82
2023-05-23T05:08:46.289Z,15.15
2023-05-23T05:11:13.419Z,15.43
2023-05-23T05:13:40.209Z,15.81
2023-05-23T05:16:07.784Z,16.17
2023-05-23T05:18:35.085Z,16.50
2023-05-23T05:21:02.242Z,16.89
2023-05-23T05:23:29.037Z,17.29
2023-05-23T05:25:56.742Z,17.65
2023-05-23T05:28:23.562Z,17.94
2023-05-23T05:30:54.382Z,18.32
2023-05-23T05:33:25.060Z,18.71
2023-05-23T05:35:52.242Z,19.02
2023-05-23T05:38:19.144Z,19.27
2023-05-23T05:40:46.237Z,19.61
2023-05-23T05:43:13.091Z,19.90
2023-05-23T05:45:40.440Z,20.33
2023-05-23T05:48:08.011Z,20.72
2023-05-23T05:50:35.301Z,21.10
2023-05-23T05:53:02.219Z,21.33
2023-05-23T05:55:29.568Z,21.36
2023-05-23T05:57:56.514Z,21.62
2023-05-23T06:00:24.127Z,21.88
2023-05-23T06:02:51.988Z,22.04
2023-05-23T06:05:19.250Z,22.18
2023-05-23T06:07:48.054Z,22.50
2023-05-23T06:10:15.156Z,22.81
2023-05-23T06:12:42.238Z,23.30
2023-05-23T06:15:14.772Z,23.67
2023-05-23T06:17:41.896Z,23.20
2023-05-23T06:20:09.115Z,23.19
2023-05-23T06:22:36.066Z,23.10
2023-05-23T06:25:03.628Z,23.11
2023-05-23T06:27:30.469Z,23.17
2023-05-23T06:29:57.558Z,23.60
2023-05-23T06:32:24.351Z,24.08
2023-05-23T06:34:51.433Z,24.18
2023-05-23T06:37:18.193Z,24.45
2023-05-23T06:39:45.293Z,24.82
2023-05-23T06:42:12.043Z,25.16
2023-05-23T06:44:39.079Z,25.51
2023-05-23T06:47:06.036Z,25.72
2023-05-23T06:49:33.072Z,26.17
2023-05-23T06:52:00.108Z,26.36
2023-05-23T06:54:28.851Z,26.31
2023-05-23T06:56:55.651Z,26.62
2023-05-23T06:59:22.754Z,27.05
2023-05-23T07:01:49.520Z,27.55
2023-05-23T07:04:16.621Z,27.89
2023-05-23T07:06:43.409Z,28.23
2023-05-23T07:09:12.005Z,28.36
2023-05-23T07:11:40.921Z,28.37
2023-05-23T07:14:08.045Z,28.37
2023-05-23T07:16:34.823Z,28.33
2023-05-23T07:19:02.124Z,28.53
2023-05-23T07:21:29.154Z,28.41
2023-05-23T07:23:56.332Z,28.30
2023-05-23T07:26:23.067Z,28.45
2023-05-23T07:28:50.677Z,28.73
2023-05-23T07:31:17.765Z,28.88
2023-05-23T07:33:44.978Z,28.62
2023-05-23T07:36:11.942Z,28.52
2023-05-23T07:38:39.468Z,28.90
2023-05-23T07:41:11.477Z,29.17
2023-05-23T07:43:39.091Z,29.48
2023-05-23T07:46:05.941Z,29.88
2023-05-23T07:48:33.307Z,29.77
2023-05-23T07:51:00.180Z,29.74
2023-05-23T07:53:27.253Z,29.89
2023-05-23T07:55:54.008Z,30.15
2023-05-23T07:58:21.078Z,30.50
2023-05-23T08:00:48.006Z,31.02
2023-05-23T08:03:15.371Z,31.45
2023-05-23T08:05:42.187Z,31.41
2023-05-23T08:08:09.287Z,31.59
2023-05-23T08:10:36.087Z,31.67
2023-05-23T08:13:06.905Z,31.71
2023-05-23T08:15:33.996Z,31.62
2023-05-23T08:18:01.434Z,31.78
2023-05-23T08:20:32.292Z,31.88
2023-05-23T08:23:02.892Z,31.82
2023-05-23T08:25:32.663Z,31.41
2023-05-23T08:28:00.603Z,31.60
2023-05-23T08:30:28.326Z,31.58
2023-05-23T08:32:56.339Z,31.46
2023-05-23T08:35:23.215Z,31.33
2023-05-23T08:37:51.000Z,31.32
2023-05-23T08:40:22.154Z,31.45
2023-05-23T08:42:50.455Z,31.51
2023-05-23T08:45:17.708Z,31.71
2023-05-23T08:47:45.879Z,31.75
2023-05-23T08:50:17.565Z,30.84
2023-05-23T08:52:58.383Z,30.51
2023-05-23T08:55:28.656Z,30.46
2023-05-23T08:57:56.355Z,30.28
2023-05-23T09:00:24.822Z,30.17
2023-05-23T09:02:52.819Z,30.34
2023-05-23T09:05:19.807Z,30.57
2023-05-23T09:07:51.891Z,30.44
2023-05-23T09:10:20.582Z,29.98
2023-05-23T09:12:47.934Z,29.57
2023-05-23T09:15:14.930Z,28.93
2023-05-23T09:17:42.147Z,28.71
2023-05-23T09:20:14.318Z,28.34
2023-05-23T09:22:42.158Z,27.83
2023-05-23T09:25:09.197Z,27.62
2023-05-23T09:27:36.543Z,27.44
2023-05-23T09:30:10.126Z,27.79
2023-05-23T09:32:37.454Z,28.25
2023-05-23T09:35:08.040Z,28.77
2023-05-23T09:37:35.084Z,29.16
2023-05-23T09:40:06.600Z,29.08
2023-05-23T09:42:34.336Z,29.05
2023-05-23T09:45:03.865Z,29.10
2023-05-23T09:47:31.889Z,29.19
2023-05-23T09:49:58.835Z,28.95
2023-05-23T09:52:26.461Z,28.93
2023-05-23T09:54:54.116Z,29.18
2023-05-23T09:57:23.110Z,28.91
2023-05-23T09:59:56.599Z,29.09
2023-05-23T10:02:37.145Z,28.89
2023-05-23T10:05:05.131Z,28.55
2023-05-23T10:07:33.251Z,28.37
2023-05-23T10:10:03.603Z,28.68
2023-05-23T10:12:50.273Z,29.24
2023-05-23T10:15:18.724Z,29.25
2023-05-23T10:17:51.899Z,29.58
2023-05-23T10:20:21.942Z,29.68
2023-05-23T10:22:49.071Z,29.90
2023-05-23T10:25:16.762Z,29.54
2023-05-23T10:27:44.553Z,29.37
2023-05-23T10:30:11.671Z,29.28
2023-05-23T10:32:39.432Z,29.03
2023-05-23T10:35:09.445Z,29.02
2023-05-23T10:37:36.445Z,28.74
2023-05-23T10:40:38.986Z,28.78
2023-05-23T10:43:10.845Z,28.74
2023-05-23T10:45:43.884Z,28.84
2023-05-23T10:48:37.603Z,29.14
2023-05-23T10:51:17.532Z,29.72
2023-05-23T10:53:46.270Z,29.64
2023-05-23T10:56:23.877Z,29.71
2023-05-23T10:58:55.062Z,29.60
2023-05-23T11:01:22.196Z,29.37
2023-05-23T11:03:54.130Z,29.20
2023-05-23T11:06:32.495Z,29.35
2023-05-23T11:09:07.689Z,29.59
2023-05-23T11:12:07.188Z,29.47
2023-05-23T11:14:53.268Z,28.95
2023-05-23T11:17:32.027Z,28.99
2023-05-23T11:20:00.721Z,28.96
2023-05-23T11:22:27.820Z,28.77
2023-05-23T11:24:56.129Z,28.86
2023-05-23T11:27:28.872Z,29.23
2023-05-23T11:30:00.014Z,29.46
2023-05-23T11:32:28.182Z,29.75
2023-05-23T11:34:55.265Z,30.15
2023-05-23T11:37:25.946Z,30.39
2023-05-23T11:39:54.250Z,30.46
2023-05-23T11:42:21.038Z,30.12
2023-05-23T11:44:51.605Z,29.88
2023-05-23T11:47:18.690Z,29.78
2023-05-23T11:49:49.616Z,29.81
2023-05-23T11:52:16.576Z,29.86
2023-05-23T11:54:43.767Z,29.80
2023-05-23T11:57:11.120Z,29.71
2023-05-23T11:59:38.638Z,29.71
2023-05-23T12:02:06.525Z,29.55
2023-05-23T12:04:35.042Z,29.31
2023-05-23T12:07:04.730Z,29.05
2023-05-23T12:09:31.903Z,28.59
2023-05-23T12:11:58.688Z,28.27
2023-05-23T12:14:29.040Z,28.21
2023-05-23T12:16:55.903Z,28.30
2023-05-23T12:19:23.048Z,28.20
2023-05-23T12:21:50.022Z,27.95
2023-05-23T12:24:20.770Z,27.79
2023-05-23T12:26:55.012Z,27.40
2023-05-23T12:29:33.664Z,27.34
2023-05-23T12:32:02.114Z,27.24
2023-05-23T12:34:29.295Z,27.33
2023-05-23T12:37:10.488Z,27.34
2023-05-23T12:39:45.474Z,27.27
2023-05-23T12:42:12.609Z,26.92
2023-05-23T12:44:41.148Z,26.81
2023-05-23T12:47:07.968Z,26.77
2023-05-23T12:49:35.100Z,26.74
2023-05-23T12:52:01.936Z,26.76
2023-05-23T12:54:29.029Z,26.67
2023-05-23T12:56:55.941Z,26.60
2023-05-23T12:59:23.048Z,26.72
2023-05-23T13:01:49.812Z,26.86
2023-05-23T13:04:16.952Z,26.85
2023-05-23T13:06:43.765Z,26.78
2023-05-23T13:09:10.775Z,26.79
2023-05-23T13:11:37.978Z,26.70
2023-05-23T13:14:05.101Z,26.51
2023-05-23T13:16:33.178Z,26.45
2023-05-23T13:19:00.401Z,26.24
2023-05-23T13:21:27.793Z,25.99
2023-05-23T13:23:54.900Z,26.10
2023-05-23T13:26:21.873Z,26.39
2023-05-23T13:28:48.928Z,26.51
2023-05-23T13:31:15.709Z,26.50
2023-05-23T13:33:42.780Z,26.70
2023-05-23T13:36:09.554Z,26.88
2023-05-23T13:38:37.652Z,26.72
2023-05-23T13:41:04.558Z,26.57
2023-05-23T13:43:31.680Z,26.27
2023-05-23T13:45:58.561Z,25.99
2023-05-23T13:48:25.711Z,25.84
2023-05-23T13:50:52.622Z,25.78
2023-05-23T13:53:21.604Z,25.81
2023-05-23T13:55:48.510Z,25.89
2023-05-23T13:58:15.760Z,26.04
2023-05-23T14:00:43.209Z,26.04
2023-05-23T14:03:10.733Z,26.07
2023-05-23T14:05:37.767Z,26.05
2023-05-23T14:08:04.970Z,26.04
2023-05-23T14:10:33.548Z,26.06
2023-05-23T14:13:00.878Z,26.04
2023-05-23T14:15:28.355Z,25.95
2023-05-23T14:17:56.158Z,25.78
2023-05-23T14:20:23.376Z,25.72
2023-05-23T14:22:51.327Z,25.67
2023-05-23T14:25:18.903Z,25.60
2023-05-23T14:27:46.079Z,25.54
2023-05-23T14:30:13.008Z,25.59
2023-05-23T14:32:40.586Z,25.68
2023-05-23T14:35:08.400Z,25.78
2023-05-23T14:37:35.683Z,25.95
2023-05-23T14:40:03.317Z,26.03
2023-05-23T14:42:30.765Z,26.06
2023-05-23T14:44:57.519Z,26.07
2023-05-23T14:47:24.632Z,26.23
2023-05-23T14:49:51.475Z,26.31
2023-05-23T14:52:18.754Z,26.34
2023-05-23T14:54:45.574Z,26.41
2023-05-23T14:57:12.616Z,26.34
2023-05-23T14:59:39.434Z,26.16
2023-05-23T15:02:08.245Z,25.85
2023-05-23T15:04:36.074Z,25.63
2023-05-23T15:07:03.155Z,25.37
2023-05-23T15:09:29.899Z,25.25
2023-05-23T15:11:57.011Z,25.16
2023-05-23T15:14:29.054Z,25.00
2023-05-23T15:16:56.635Z,24.84
2023-05-23T15:19:23.493Z,24.77
2023-05-23T15:21:51.821Z,24.79
2023-05-23T15:24:19.139Z,24.89
2023-05-23T15:26:47.205Z,24.97
2023-05-23T15:29:15.525Z,25.06
2023-05-23T15:31:42.791Z,25.09
2023-05-23T15:34:09.681Z,25.18
2023-05-23T15:36:36.934Z,25.19
2023-05-23T15:39:04.932Z,25.18
2023-05-23T15:41:32.461Z,25.10
2023-05-23T15:44:02.441Z,25.00
2023-05-23T15:46:29.893Z,24.98
2023-05-23T15:49:05.067Z,24.97
2023-05-23T15:51:40.744Z,24.92
2023-05-23T15:54:07.573Z,24.94
2023-05-23T15:56:34.624Z,25.04
2023-05-23T15:59:01.400Z,25.15
2023-05-23T16:01:28.522Z,25.24
2023-05-23T16:03:56.038Z,25.27
2023-05-23T16:06:23.764Z,25.20
2023-05-23T16:08:50.495Z,25.10
2023-05-23T16:11:17.746Z,25.01
2023-05-23T16:13:44.498Z,24.89
2023-05-23T16:16:11.621Z,24.71
2023-05-23T16:18:38.484Z,24.61
2023-05-23T16:21:05.867Z,24.47
2023-05-23T16:23:32.613Z,24.40
2023-05-23T16:25:59.826Z,24.29
2023-05-23T16:28:27.606Z,24.22
2023-05-23T16:30:55.822Z,24.19
2023-05-23T16:33:22.575Z,24.16
2023-05-23T16:35:49.630Z,24.14
2023-05-23T16:38:16.414Z,24.13
2023-05-23T16:40:44.016Z,24.11
2023-05-23T16:43:11.488Z,24.10
2023-05-23T16:45:41.065Z,24.05
2023-05-23T16:48:08.730Z,23.95
2023-05-23T16:50:35.796Z,23.88
2023-05-23T16:53:02.671Z,23.79
2023-05-23T16:55:29.668Z,23.72
2023-05-23T16:57:56.545Z,23.66
2023-05-23T17:00:23.655Z,23.59
2023-05-23T17:02:50.489Z,23.52
2023-05-23T17:05:17.774Z,23.42
2023-05-23T17:07:44.580Z,23.32
2023-05-23T17:10:11.849Z,23.27
2023-05-23T17:12:38.685Z,23.20
2023-05-23T17:15:07.338Z,23.12
2023-05-23T17:17:34.210Z,23.01
2023-05-23T17:20:01.469Z,22.89
2023-05-23T17:22:28.244Z,22.75
2023-05-23T17:24:55.754Z,22.59
2023-05-23T17:27:22.548Z,22.42
2023-05-23T17:29:49.752Z,22.23
2023-05-23T17:32:16.566Z,22.06
2023-05-23T17:34:44.358Z,21.85
2023-05-23T17:37:11.878Z,21.75
2023-05-23T17:39:38.895Z,21.67
2023-05-23T17:42:05.903Z,21.59
2023-05-23T17:44:33.216Z,21.45
2023-05-23T17:47:00.161Z,21.25
2023-05-23T17:49:27.265Z,21.09
2023-05-23T17:51:54.104Z,21.00
2023-05-23T17:54:21.190Z,20.92
2023-05-23T17:56:47.921Z,20.79
2023-05-23T17:59:17.858Z,20.70
2023-05-23T18:01:44.652Z,20.52
2023-05-23T18:04:11.807Z,20.34
2023-05-23T18:06:38.565Z,20.19
2023-05-23T18:09:05.569Z,20.00
2023-05-23T18:11:32.343Z,19.83
2023-05-23T18:14:00.416Z,19.67
2023-05-23T18:16:27.591Z,19.61
2023-05-23T18:18:54.705Z,19.56
2023-05-23T18:21:21.914Z,19.55
2023-05-23T18:23:49.059Z,19.55
2023-05-23T18:26:15.990Z,19.57
2023-05-23T18:28:43.005Z,19.59
2023-05-23T18:31:09.830Z,19.60
2023-05-23T18:33:37.091Z,19.50
2023-05-23T18:36:04.134Z,19.39
2023-05-23T18:38:31.285Z,19.20
2023-05-23T18:40:58.138Z,19.01
2023-05-23T18:43:25.139Z,18.85
2023-05-23T18:45:51.915Z,18.70
2023-05-23T18:48:19.072Z,18.66
2023-05-23T18:50:45.957Z,18.67
2023-05-23T18:53:13.136Z,18.70
2023-05-23T18:55:39.904Z,18.70
2023-05-23T18:58:07.124Z,18.72
2023-05-23T19:00:33.903Z,18.70
2023-05-23T19:03:01.249Z,18.67
2023-05-23T19:05:29.477Z,18.64
2023-05-23T19:07:56.823Z,18.57
2023-05-23T19:10:23.573Z,18.51
2023-05-23T19:12:50.626Z,18.43
2023-05-23T19:15:17.425Z,18.38
2023-05-23T19:17:44.543Z,18.36
2023-05-23T19:20:12.075Z,18.39
2023-05-23T19:22:50.993Z,18.37
2023-05-23T19:25:19.057Z,18.33
2023-05-23T19:27:46.148Z,18.23
2023-05-23T19:30:12.968Z,18.14
2023-05-23T19:32:40.211Z,18.08
2023-05-23T19:35:07.206Z,18.03
2023-05-23T19:37:34.322Z,18.02
2023-05-23T19:40:01.859Z,18.06
2023-05-23T19:42:28.948Z,18.08
2023-05-23T19:44:55.722Z,18.08
2023-05-23T19:47:22.873Z,18.06
2023-05-23T19:49:49.679Z,18.02
2023-05-23T19:52:16.761Z,17.97
2023-05-23T19:54:43.576Z,17.91
2023-05-23T19:57:10.691Z,17.82
2023-05-23T19:59:37.978Z,17.73
2023-05-23T20:02:05.139Z,17.64
2023-05-23T20:04:31.949Z,17.58
2023-05-23T20:06:59.781Z,17.53
2023-05-23T20:09:26.546Z,17.45
2023-05-23T20:11:53.620Z,17.38
2023-05-23T20:14:20.690Z,17.34
2023-05-23T20:16:47.740Z,17.28
2023-05-23T20:19:14.747Z,17.29
2023-05-23T20:21:41.863Z,17.28
2023-05-23T20:24:09.032Z,17.24
2023-05-23T20:26:36.140Z,17.23
2023-05-23T20:29:02.899Z,17.22
2023-05-23T20:31:30.045Z,17.21
2023-05-23T20:33:56.919Z,17.21
2023-05-23T20:36:24.175Z,17.20
2023-05-23T20:38:52.640Z,17.18
2023-05-23T20:41:20.157Z,17.14
2023-05-23T20:43:48.349Z,17.17
2023-05-23T20:46:15.622Z,17.20
2023-05-23T20:48:42.553Z,17.24
2023-05-23T20:51:09.725Z,17.28
2023-05-23T20:53:36.492Z,17.29
2023-05-23T20:56:04.051Z,17.30
2023-05-23T20:58:30.926Z,17.29
2023-05-23T21:00:58.825Z,17.28
2023-05-23T21:03:25.853Z,17.27
2023-05-23T21:05:53.035Z,17.24
2023-05-23T21:08:19.964Z,17.22
2023-05-23T21:10:50.663Z,17.20
2023-05-23T21:13:19.218Z,17.15
2023-05-23T21:15:46.285Z,17.11
2023-05-23T21:18:13.059Z,17.03
2023-05-23T21:20:40.238Z,16.98
2023-05-23T21:23:07.207Z,16.94
2023-05-23T21:25:34.696Z,16.88
2023-05-23T21:28:01.492Z,16.84
2023-05-23T21:30:28.574Z,16.76
2023-05-23T21:32:55.563Z,16.69
2023-05-23T21:35:22.694Z,16.61
2023-05-23T21:37:49.494Z,16.51
2023-05-23T21:40:16.677Z,16.46
2023-05-23T21:42:43.470Z,16.42
2023-05-23T21:45:10.867Z,16.41
2023-05-23T21:47:37.753Z,16.40
2023-05-23T21:50:04.947Z,16.38
2023-05-23T21:52:31.781Z,16.35
2023-05-23T21:54:58.784Z,16.33
2023-05-23T21:57:25.618Z,16.29
2023-05-23T21:59:52.660Z,16.24
2023-05-23T22:02:19.506Z,16.19
2023-05-23T22:04:46.867Z,16.11
2023-05-23T22:07:13.599Z,16.04
2023-05-23T22:09:40.800Z,15.92
2023-05-23T22:12:08.260Z,15.84
2023-05-23T22:14:35.641Z,15.73
2023-05-23T22:17:03.880Z,15.68
2023-05-23T22:19:30.997Z,15.59
2023-05-23T22:21:57.824Z,15.55
2023-05-23T22:24:25.489Z,15.51
2023-05-23T22:26:52.392Z,15.47
2023-05-23T22:29:19.651Z,15.48
2023-05-23T22:31:47.670Z,15.47
2023-05-23T22:34:15.225Z,15.45
2023-05-23T22:36:42.083Z,15.40
2023-05-23T22:39:09.680Z,15.37
2023-05-23T22:41:36.722Z,15.34
2023-05-23T22:44:03.785Z,15.34
2023-05-23T22:46:30.694Z,15.35
2023-05-23T22:48:58.251Z,15.34
2023-05-23T22:51:25.092Z,15.36
2023-05-23T22:53:53.047Z,15.41
2023-05-23T22:56:19.907Z,15.46
2023-05-23T22:58:46.981Z,15.53
2023-05-23T23:01:13.809Z,15.55
2023-05-23T23:03:41.273Z,15.58
2023-05-23T23:06:09.397Z,15.57
2023-05-23T23:08:37.638Z,15.54
2023-05-23T23:11:04.507Z,15.53
2023-05-23T23:13:31.573Z,15.51
2023-05-23T23:15:58.787Z,15.47
2023-05-23T23:18:26.972Z,15.43
2023-05-23T23:20:54.534Z,15.38
2023-05-23T23:23:21.620Z,15.32
2023-05-23T23:25:50.216Z,15.30
2023-05-23T23:28:17.650Z,15.28
2023-05-23T23:30:44.634Z,15.26
2023-05-23T23:33:12.027Z,15.23
2023-05-23T23:35:38.982Z,15.23
2023-05-23T23:38:06.024Z,15.21
2023-05-23T23:40:32.768Z,15.19
2023-05-23T23:42:59.779Z,15.17
2023-05-23T23:45:26.548Z,15.15
2023-05-23T23:47:53.644Z,15.13
2023-05-23T23:50:20.572Z,15.11
2023-05-23T23:52:47.688Z,15.10
2023-05-23T23:55:14.499Z,15.07
2023-05-23T23:57:41.585Z,15.07
